createdAt,value
2018-05-23T00:04:44.137Z,12.70
2018-05-23T00:09:46.206Z,12.60
2018-05-23T00:14:48.282Z,12.50
2018-05-23T00:19:50.254Z,12.40
2018-05-23T00:24:52.230Z,12.50
2018-05-23T00:29:53.651Z,12.40
2018-05-23T00:34:54.970Z,12.40
2018-05-23T00:39:57.070Z,12.50
2018-05-23T00:44:58.363Z,12.50
2018-05-23T00:49:59.729Z,12.50
2018-05-23T00:55:13.437Z,12.50
2018-05-23T01:00:14.800Z,12.50
2018-05-23T01:05:16.883Z,12.30
2018-05-23T01:10:18.226Z,12.30
2018-05-23T01:15:19.537Z,12.20
2018-05-23T01:20:21.544Z,12.10
2018-05-23T01:25:22.837Z,12.00
2018-05-23T01:30:25.143Z,11.80
2018-05-23T01:35:26.461Z,11.80
2018-05-23T01:40:27.771Z,11.90
2018-05-23T01:45:29.055Z,12.10
2018-05-23T01:50:30.344Z,12.20
2018-05-23T01:55:32.352Z,12.50
2018-05-23T02:00:34.536Z,12.60
2018-05-23T02:05:35.742Z,12.60
2018-05-23T02:10:36.979Z,12.50
2018-05-23T02:15:38.263Z,12.70
2018-05-23T02:20:39.571Z,12.60
2018-05-23T02:25:41.669Z,12.70
2018-05-23T02:30:43.745Z,12.70
2018-05-23T02:35:45.829Z,12.80
2018-05-23T02:40:47.113Z,12.80
2018-05-23T02:45:48.467Z,12.80
2018-05-23T02:50:49.743Z,12.80
2018-05-23T02:55:51.011Z,12.60
2018-05-23T03:00:52.342Z,12.40
2018-05-23T03:05:54.354Z,12.40
2018-05-23T03:10:55.801Z,12.40
2018-05-23T03:15:57.036Z,12.50
2018-05-23T03:20:58.400Z,12.60
2018-05-23T03:25:59.683Z,12.60
2018-05-23T03:31:00.977Z,12.70
2018-05-23T03:36:03.043Z,12.70
2018-05-23T03:41:04.363Z,12.70
2018-05-23T03:46:06.434Z,12.80
2018-05-23T03:51:08.466Z,12.90
2018-05-23T03:56:09.702Z,12.80
2018-05-23T04:01:24.082Z,12.90
2018-05-23T04:06:37.624Z,12.90
2018-05-23T04:11:38.997Z,13.00
2018-05-23T04:16:40.309Z,13.30
2018-05-23T04:21:42.350Z,13.70
2018-05-23T04:26:43.636Z,13.70
2018-05-23T04:31:44.961Z,13.90
2018-05-23T04:36:46.317Z,13.90
2018-05-23T04:41:48.370Z,14.60
2018-05-23T04:46:50.398Z,14.70
2018-05-23T04:51:52.462Z,14.70
2018-05-23T04:56:53.788Z,14.70
2018-05-23T05:01:55.813Z,14.90
2018-05-23T05:06:57.084Z,14.80
2018-05-23T05:11:58.402Z,14.90
2018-05-23T05:16:59.701Z,15.10
2018-05-23T05:22:00.959Z,15.30
2018-05-23T05:27:02.245Z,15.70
2018-05-23T05:32:03.543Z,15.90
2018-05-23T05:37:05.567Z,16.10
2018-05-23T05:42:06.814Z,16.10
2018-05-23T05:47:08.058Z,16.40
2018-05-23T05:52:09.263Z,16.60
2018-05-23T05:57:10.607Z,16.00
2018-05-23T06:02:11.944Z,16.40
2018-05-23T06:07:13.264Z,16.00
2018-05-23T06:12:14.625Z,15.80
2018-05-23T06:17:15.945Z,15.60
2018-05-23T06:22:17.380Z,15.70
2018-05-23T06:27:18.578Z,15.60
2018-05-23T06:32:19.927Z,15.70
2018-05-23T06:37:21.223Z,15.60
2018-05-23T06:42:22.598Z,15.60
2018-05-23T06:47:23.934Z,15.40
2018-05-23T06:52:25.239Z,15.20
2018-05-23T06:57:27.319Z,15.00
2018-05-23T07:02:29.376Z,15.10
2018-05-23T07:07:30.650Z,15.00
2018-05-23T07:12:31.982Z,15.10
2018-05-23T07:17:33.328Z,15.20
2018-05-23T07:22:34.637Z,15.20
2018-05-23T07:27:36.052Z,15.10
2018-05-23T07:32:38.465Z,15.00
2018-05-23T07:37:40.721Z,14.90
2018-05-23T07:42:42.145Z,14.80
2018-05-23T07:47:43.503Z,15.00
2018-05-23T07:52:44.819Z,15.20
2018-05-23T07:57:46.091Z,15.20
2018-05-23T08:02:47.377Z,14.90
2018-05-23T08:07:48.644Z,15.10
2018-05-23T08:12:50.057Z,15.10
2018-05-23T08:17:51.420Z,15.30
2018-05-23T08:22:52.779Z,15.30
2018-05-23T08:27:54.308Z,15.30
2018-05-23T08:32:56.406Z,15.30
2018-05-23T08:37:59.525Z,15.00
2018-05-23T08:43:00.837Z,15.00
2018-05-23T08:48:02.931Z,14.80
2018-05-23T08:53:04.337Z,14.80
2018-05-23T08:58:07.702Z,14.70
2018-05-23T09:03:09.051Z,14.70
2018-05-23T09:08:10.468Z,14.60
2018-05-23T09:13:11.886Z,14.80
2018-05-23T09:18:13.184Z,15.00
2018-05-23T09:23:15.572Z,15.20
2018-05-23T09:28:17.665Z,15.40
2018-05-23T09:33:18.990Z,15.40
2018-05-23T09:38:20.387Z,15.60
2018-05-23T09:43:21.679Z,15.60
2018-05-23T09:48:22.994Z,15.70
2018-05-23T09:53:24.328Z,16.00
2018-05-23T09:58:25.645Z,16.20
2018-05-23T10:03:26.947Z,16.40
2018-05-23T10:08:28.383Z,17.00
2018-05-23T10:13:29.741Z,17.30
2018-05-23T10:18:31.102Z,17.60
2018-05-23T10:23:32.527Z,18.00
2018-05-23T10:28:33.789Z,19.30
2018-05-23T10:33:35.146Z,19.90
2018-05-23T10:38:36.532Z,19.70
2018-05-23T10:43:38.613Z,20.30
2018-05-23T10:48:39.878Z,20.20
2018-05-23T10:53:41.861Z,20.00
2018-05-23T10:58:43.218Z,19.90
2018-05-23T11:03:44.688Z,19.60
2018-05-23T11:08:46.015Z,19.30
2018-05-23T11:13:48.137Z,20.40
2018-05-23T11:18:49.462Z,20.40
2018-05-23T11:23:50.852Z,20.10
2018-05-23T11:28:52.179Z,19.80
2018-05-23T11:33:53.515Z,20.50
2018-05-23T11:38:54.764Z,20.20
2018-05-23T11:43:56.135Z,20.30
2018-05-23T11:48:57.421Z,20.30
2018-05-23T11:53:58.720Z,20.90
2018-05-23T11:59:00.970Z,20.70
2018-05-23T12:04:02.294Z,20.80
2018-05-23T12:09:04.899Z,21.40
2018-05-23T12:14:06.203Z,21.20
2018-05-23T12:19:07.556Z,20.90
2018-05-23T12:24:09.226Z,21.20
2018-05-23T12:29:10.498Z,22.80
2018-05-23T12:34:11.965Z,22.60
2018-05-23T12:39:13.348Z,22.20
2018-05-23T12:44:15.571Z,22.10
2018-05-23T12:49:16.984Z,22.10
2018-05-23T12:54:18.325Z,22.30
2018-05-23T12:59:19.770Z,22.90
2018-05-23T13:04:21.260Z,23.50
2018-05-23T13:09:22.614Z,24.30
2018-05-23T13:14:23.955Z,24.60
2018-05-23T13:19:25.354Z,24.30
2018-05-23T13:24:26.731Z,24.90
2018-05-23T13:29:28.796Z,26.30
2018-05-23T13:34:31.708Z,26.90
2018-05-23T13:39:33.779Z,26.90
2018-05-23T13:44:35.186Z,27.00
2018-05-23T13:49:36.514Z,25.60
2018-05-23T13:54:37.878Z,27.00
2018-05-23T13:59:39.955Z,27.30
2018-05-23T14:04:41.322Z,27.30
2018-05-23T14:09:43.429Z,28.40
2018-05-23T14:14:44.888Z,28.40
2018-05-23T14:19:46.509Z,27.00
2018-05-23T14:24:47.989Z,28.10
2018-05-23T14:29:49.614Z,28.30
2018-05-23T14:34:51.000Z,28.80
2018-05-23T14:39:52.377Z,28.00
2018-05-23T14:44:53.869Z,27.20
2018-05-23T14:49:56.359Z,26.40
2018-05-23T14:54:57.794Z,25.90
2018-05-23T14:59:59.123Z,25.70
2018-05-23T15:05:00.424Z,25.50
2018-05-23T15:10:01.674Z,25.40
2018-05-23T15:15:03.117Z,24.90
2018-05-23T15:20:04.579Z,25.50
2018-05-23T15:25:05.789Z,26.60
2018-05-23T15:30:07.878Z,28.20
2018-05-23T15:35:09.974Z,28.20
2018-05-23T15:40:11.309Z,27.90
2018-05-23T15:45:13.439Z,27.90
2018-05-23T15:50:14.844Z,27.90
2018-05-23T15:55:16.316Z,26.60
2018-05-23T16:00:17.897Z,25.70
2018-05-23T16:05:20.005Z,25.30
2018-05-23T16:10:21.476Z,25.30
2018-05-23T16:15:22.872Z,25.50
2018-05-23T16:20:24.261Z,25.10
2018-05-23T16:25:25.695Z,24.20
2018-05-23T16:30:27.010Z,23.60
2018-05-23T16:35:29.118Z,23.10
2018-05-23T16:40:30.508Z,23.00
2018-05-23T16:45:32.862Z,23.00
2018-05-23T16:50:34.230Z,22.90
2018-05-23T16:55:35.615Z,22.80
2018-05-23T17:00:36.958Z,22.60
2018-05-23T17:05:38.508Z,22.90
2018-05-23T17:10:39.976Z,22.40
2018-05-23T17:15:41.393Z,22.30
2018-05-23T17:20:42.925Z,22.30
2018-05-23T17:25:44.419Z,22.30
2018-05-23T17:30:45.820Z,22.10
2018-05-23T17:35:47.224Z,22.00
2018-05-23T17:40:48.569Z,21.90
2018-05-23T17:45:50.009Z,21.80
2018-05-23T17:50:53.327Z,21.50
2018-05-23T17:55:55.099Z,21.40
2018-05-23T18:00:57.351Z,21.20
2018-05-23T18:05:59.557Z,21.10
2018-05-23T18:11:01.631Z,21.00
2018-05-23T18:16:03.165Z,20.90
2018-05-23T18:21:04.491Z,20.80
2018-05-23T18:26:05.960Z,20.70
2018-05-23T18:31:07.247Z,20.50
2018-05-23T18:36:09.585Z,20.40
2018-05-23T18:41:11.592Z,20.10
2018-05-23T18:46:13.003Z,20.10
2018-05-23T18:51:14.349Z,20.00
2018-05-23T18:56:15.669Z,20.00
2018-05-23T19:01:17.022Z,20.20
2018-05-23T19:06:18.423Z,19.90
2018-05-23T19:11:19.755Z,19.60
2018-05-23T19:16:21.808Z,19.10
2018-05-23T19:21:23.407Z,19.00
2018-05-23T19:26:24.841Z,18.80
2018-05-23T19:31:26.314Z,18.50
2018-05-23T19:36:27.714Z,18.20
2018-05-23T19:41:28.994Z,17.90
2018-05-23T19:46:30.288Z,17.70
2018-05-23T19:51:31.630Z,17.40
2018-05-23T19:56:33.152Z,17.10
2018-05-23T20:01:34.360Z,16.80
2018-05-23T20:06:35.671Z,16.50
2018-05-23T20:11:37.025Z,16.40
2018-05-23T20:16:39.034Z,16.20
2018-05-23T20:21:40.393Z,16.10
2018-05-23T20:26:41.682Z,16.20
2018-05-23T20:31:42.961Z,16.10
2018-05-23T20:36:44.218Z,16.10
2018-05-23T20:41:46.393Z,16.30
2018-05-23T20:46:48.518Z,16.50
2018-05-23T20:51:50.071Z,16.50
2018-05-23T20:56:51.445Z,16.90
2018-05-23T21:01:54.614Z,17.40
2018-05-23T21:06:55.929Z,17.40
2018-05-23T21:11:58.026Z,17.40
2018-05-23T21:16:59.380Z,17.40
2018-05-23T21:22:00.774Z,17.30
2018-05-23T21:27:02.082Z,17.20
2018-05-23T21:32:04.490Z,17.10
2018-05-23T21:37:05.916Z,17.00
2018-05-23T21:42:07.235Z,17.00
2018-05-23T21:47:08.685Z,16.90
2018-05-23T21:52:10.053Z,16.70
2018-05-23T21:57:11.503Z,16.50
2018-05-23T22:02:13.654Z,16.40
2018-05-23T22:07:15.115Z,16.40
2018-05-23T22:12:17.281Z,16.20
2018-05-23T22:17:18.593Z,16.20
2018-05-23T22:22:20.027Z,16.10
2018-05-23T22:27:21.524Z,15.70
2018-05-23T22:32:23.177Z,16.00
2018-05-23T22:37:25.354Z,15.80
2018-05-23T22:42:26.727Z,15.70
2018-05-23T22:47:28.748Z,15.30
2018-05-23T22:52:30.046Z,15.30
2018-05-23T22:57:31.401Z,15.10
2018-05-23T23:02:32.715Z,14.90
2018-05-23T23:07:34.757Z,14.80
2018-05-23T23:12:36.087Z,14.70
2018-05-23T23:17:37.520Z,14.70
2018-05-23T23:22:38.794Z,14.50
2018-05-23T23:27:40.111Z,14.40
2018-05-23T23:32:42.253Z,14.50
2018-05-23T23:37:44.157Z,14.60
2018-05-23T23:42:45.924Z,14.70
2018-05-23T23:47:47.631Z,14.70
2018-05-23T23:52:49.270Z,14.60
2018-05-23T23:57:51.034Z,14.50
